sensor_id;sensor_type;location;lat;lon;timestamp;P1;durP1;ratioP1;P2;durP2;ratioP2
71423;SDS011;59240;51.370;-0.486;2023-01-05T00:01:08;19.63;;;1.52;;
71423;SDS011;59240;51.370;-0.486;2023-01-05T00:03:37;22.80;;;2.13;;
71423;SDS011;59240;51.370;-0.486;2023-01-05T00:06:05;25.13;;;2.28;;
71423;SDS011;59240;51.370;-0.486;2023-01-05T00:08:34;19.23;;;2.13;;
71423;SDS011;59240;51.370;-0.486;2023-01-05T00:11:06;27.73;;;2.40;;
71423;SDS011;59240;51.370;-0.486;2023-01-05T00:13:55;21.00;;;2.20;;
71423;SDS011;59240;51.370;-0.486;2023-01-05T00:16:41;17.45;;;2.08;;
71423;SDS011;59240;51.370;-0.486;2023-01-05T00:19:26;21.75;;;2.35;;
71423;SDS011;59240;51.370;-0.486;2023-01-05T00:22:28;24.05;;;2.85;;
71423;SDS011;59240;51.370;-0.486;2023-01-05T00:25:09;23.27;;;2.30;;
71423;SDS011;59240;51.370;-0.486;2023-01-05T00:27:41;20.30;;;2.50;;
71423;SDS011;59240;51.370;-0.486;2023-01-05T00:30:11;12.63;;;1.85;;
71423;SDS011;59240;51.370;-0.486;2023-01-05T00:32:40;19.83;;;2.05;;
71423;SDS011;59240;51.370;-0.486;2023-01-05T00:35:08;22.45;;;3.05;;
71423;SDS011;59240;51.370;-0.486;2023-01-05T00:37:36;24.77;;;2.47;;
71423;SDS011;59240;51.370;-0.486;2023-01-05T00:40:07;12.02;;;1.65;;
71423;SDS011;59240;51.370;-0.486;2023-01-05T00:42:36;18.02;;;2.03;;
71423;SDS011;59240;51.370;-0.486;2023-01-05T00:45:04;28.80;;;2.60;;
71423;SDS011;59240;51.370;-0.486;2023-01-05T00:47:32;19.98;;;2.20;;
71423;SDS011;59240;51.370;-0.486;2023-01-05T00:49:59;15.63;;;1.90;;
71423;SDS011;59240;51.370;-0.486;2023-01-05T00:52:26;19.85;;;3.42;;
71423;SDS011;59240;51.370;-0.486;2023-01-05T00:54:52;18.08;;;1.83;;
71423;SDS011;59240;51.370;-0.486;2023-01-05T00:57:19;19.10;;;1.98;;
71423;SDS011;59240;51.370;-0.486;2023-01-05T00:59:45;15.50;;;1.67;;
71423;SDS011;59240;51.370;-0.486;2023-01-05T01:02:12;19.17;;;2.27;;
71423;SDS011;59240;51.370;-0.486;2023-01-05T01:04:39;26.40;;;2.85;;
71423;SDS011;59240;51.370;-0.486;2023-01-05T01:07:06;19.52;;;2.08;;
71423;SDS011;59240;51.370;-0.486;2023-01-05T01:09:32;28.10;;;2.42;;
71423;SDS011;59240;51.370;-0.486;2023-01-05T01:12:00;36.40;;;2.58;;
71423;SDS011;59240;51.370;-0.486;2023-01-05T01:14:27;15.83;;;1.40;;
71423;SDS011;59240;51.370;-0.486;2023-01-05T01:16:53;25.23;;;3.03;;
71423;SDS011;59240;51.370;-0.486;2023-01-05T01:19:22;21.40;;;2.72;;
71423;SDS011;59240;51.370;-0.486;2023-01-05T01:21:50;10.68;;;1.70;;
71423;SDS011;59240;51.370;-0.486;2023-01-05T01:24:18;19.38;;;2.00;;
71423;SDS011;59240;51.370;-0.486;2023-01-05T01:26:53;24.67;;;1.83;;
71423;SDS011;59240;51.370;-0.486;2023-01-05T01:29:20;18.10;;;2.75;;
71423;SDS011;59240;51.370;-0.486;2023-01-05T01:31:49;25.42;;;3.70;;
71423;SDS011;59240;51.370;-0.486;2023-01-05T01:34:18;20.05;;;2.90;;
71423;SDS011;59240;51.370;-0.486;2023-01-05T01:36:45;14.65;;;2.05;;
71423;SDS011;59240;51.370;-0.486;2023-01-05T01:39:12;25.17;;;2.40;;
71423;SDS011;59240;51.370;-0.486;2023-01-05T01:41:38;19.30;;;2.10;;
71423;SDS011;59240;51.370;-0.486;2023-01-05T01:47:09;24.80;;;2.10;;
71423;SDS011;59240;51.370;-0.486;2023-01-05T01:49:42;20.23;;;2.10;;
71423;SDS011;59240;51.370;-0.486;2023-01-05T01:52:10;10.20;;;1.07;;
71423;SDS011;59240;51.370;-0.486;2023-01-05T01:54:37;26.85;;;2.50;;
71423;SDS011;59240;51.370;-0.486;2023-01-05T01:57:04;19.83;;;2.25;;
71423;SDS011;59240;51.370;-0.486;2023-01-05T01:59:31;19.55;;;2.72;;
71423;SDS011;59240;51.370;-0.486;2023-01-05T02:01:58;19.15;;;2.88;;
71423;SDS011;59240;51.370;-0.486;2023-01-05T02:04:28;22.07;;;1.60;;
71423;SDS011;59240;51.370;-0.486;2023-01-05T02:06:58;25.63;;;2.38;;
71423;SDS011;59240;51.370;-0.486;2023-01-05T02:09:26;25.25;;;2.22;;
71423;SDS011;59240;51.370;-0.486;2023-01-05T02:17:48;20.20;;;3.10;;
71423;SDS011;59240;51.370;-0.486;2023-01-05T02:23:15;22.30;;;2.33;;
71423;SDS011;59240;51.370;-0.486;2023-01-05T02:31:24;18.97;;;2.13;;
71423;SDS011;59240;51.370;-0.486;2023-01-05T02:34:04;20.80;;;2.42;;
71423;SDS011;59240;51.370;-0.486;2023-01-05T02:44:45;19.43;;;3.07;;
71423;SDS011;59240;51.370;-0.486;2023-01-05T02:49:51;19.90;;;2.28;;
71423;SDS011;59240;51.370;-0.486;2023-01-05T02:52:22;21.67;;;2.50;;
71423;SDS011;59240;51.370;-0.486;2023-01-05T02:54:54;14.18;;;1.90;;
71423;SDS011;59240;51.370;-0.486;2023-01-05T02:57:30;24.23;;;3.17;;
71423;SDS011;59240;51.370;-0.486;2023-01-05T03:02:45;24.17;;;2.28;;
71423;SDS011;59240;51.370;-0.486;2023-01-05T03:05:16;27.30;;;2.90;;
71423;SDS011;59240;51.370;-0.486;2023-01-05T03:07:48;18.25;;;2.45;;
71423;SDS011;59240;51.370;-0.486;2023-01-05T03:10:16;31.77;;;2.60;;
71423;SDS011;59240;51.370;-0.486;2023-01-05T03:13:04;27.02;;;3.13;;
71423;SDS011;59240;51.370;-0.486;2023-01-05T03:15:51;15.35;;;2.00;;
71423;SDS011;59240;51.370;-0.486;2023-01-05T03:18:27;19.42;;;2.38;;
71423;SDS011;59240;51.370;-0.486;2023-01-05T03:20:55;16.13;;;2.22;;
71423;SDS011;59240;51.370;-0.486;2023-01-05T03:23:23;20.67;;;2.63;;
71423;SDS011;59240;51.370;-0.486;2023-01-05T03:26:08;22.92;;;2.30;;
71423;SDS011;59240;51.370;-0.486;2023-01-05T03:28:57;18.35;;;2.22;;
71423;SDS011;59240;51.370;-0.486;2023-01-05T03:34:45;22.50;;;2.72;;
71423;SDS011;59240;51.370;-0.486;2023-01-05T03:37:33;18.37;;;2.00;;
71423;SDS011;59240;51.370;-0.486;2023-01-05T03:40:05;25.50;;;2.45;;
71423;SDS011;59240;51.370;-0.486;2023-01-05T03:42:46;15.50;;;1.85;;
71423;SDS011;59240;51.370;-0.486;2023-01-05T03:45:14;14.93;;;2.05;;
71423;SDS011;59240;51.370;-0.486;2023-01-05T03:47:42;18.38;;;2.38;;
71423;SDS011;59240;51.370;-0.486;2023-01-05T03:50:09;25.67;;;2.37;;
71423;SDS011;59240;51.370;-0.486;2023-01-05T03:52:36;21.98;;;3.00;;
71423;SDS011;59240;51.370;-0.486;2023-01-05T03:55:02;19.73;;;2.42;;
71423;SDS011;59240;51.370;-0.486;2023-01-05T03:57:29;20.05;;;1.92;;
71423;SDS011;59240;51.370;-0.486;2023-01-05T03:59:55;29.00;;;2.92;;
71423;SDS011;59240;51.370;-0.486;2023-01-05T04:02:22;29.30;;;2.33;;
71423;SDS011;59240;51.370;-0.486;2023-01-05T04:04:49;20.30;;;2.30;;
71423;SDS011;59240;51.370;-0.486;2023-01-05T04:07:18;27.20;;;2.83;;
71423;SDS011;59240;51.370;-0.486;2023-01-05T04:09:44;21.27;;;2.25;;
71423;SDS011;59240;51.370;-0.486;2023-01-05T04:12:11;22.02;;;1.70;;
71423;SDS011;59240;51.370;-0.486;2023-01-05T04:14:37;23.60;;;2.03;;
71423;SDS011;59240;51.370;-0.486;2023-01-05T04:17:04;19.70;;;2.10;;
71423;SDS011;59240;51.370;-0.486;2023-01-05T04:19:31;33.03;;;2.95;;
71423;SDS011;59240;51.370;-0.486;2023-01-05T04:21:57;16.90;;;1.58;;
71423;SDS011;59240;51.370;-0.486;2023-01-05T04:24:24;23.10;;;3.17;;
71423;SDS011;59240;51.370;-0.486;2023-01-05T04:26:50;17.57;;;3.40;;
71423;SDS011;59240;51.370;-0.486;2023-01-05T04:29:17;21.33;;;2.47;;
71423;SDS011;59240;51.370;-0.486;2023-01-05T04:31:44;27.45;;;2.50;;
71423;SDS011;59240;51.370;-0.486;2023-01-05T04:34:10;21.52;;;3.13;;
71423;SDS011;59240;51.370;-0.486;2023-01-05T04:36:37;31.55;;;3.17;;
71423;SDS011;59240;51.370;-0.486;2023-01-05T04:39:04;23.80;;;2.50;;
71423;SDS011;59240;51.370;-0.486;2023-01-05T04:41:30;23.90;;;2.53;;
71423;SDS011;59240;51.370;-0.486;2023-01-05T04:43:57;14.65;;;1.95;;
71423;SDS011;59240;51.370;-0.486;2023-01-05T04:46:23;18.17;;;1.83;;
71423;SDS011;59240;51.370;-0.486;2023-01-05T04:48:50;26.85;;;2.95;;
71423;SDS011;59240;51.370;-0.486;2023-01-05T04:51:17;25.27;;;2.70;;
71423;SDS011;59240;51.370;-0.486;2023-01-05T04:53:43;25.85;;;3.20;;
71423;SDS011;59240;51.370;-0.486;2023-01-05T04:56:10;24.38;;;2.10;;
71423;SDS011;59240;51.370;-0.486;2023-01-05T04:58:37;16.27;;;1.73;;
71423;SDS011;59240;51.370;-0.486;2023-01-05T05:01:03;22.85;;;3.00;;
71423;SDS011;59240;51.370;-0.486;2023-01-05T05:03:30;21.50;;;2.67;;
71423;SDS011;59240;51.370;-0.486;2023-01-05T05:05:58;24.80;;;2.10;;
71423;SDS011;59240;51.370;-0.486;2023-01-05T05:08:25;20.48;;;2.38;;
71423;SDS011;59240;51.370;-0.486;2023-01-05T05:10:52;23.27;;;3.10;;
71423;SDS011;59240;51.370;-0.486;2023-01-05T05:13:19;21.98;;;2.45;;
71423;SDS011;59240;51.370;-0.486;2023-01-05T05:15:45;18.97;;;1.57;;
71423;SDS011;59240;51.370;-0.486;2023-01-05T05:18:12;28.23;;;2.80;;
71423;SDS011;59240;51.370;-0.486;2023-01-05T05:20:39;24.08;;;2.20;;
71423;SDS011;59240;51.370;-0.486;2023-01-05T05:23:08;24.25;;;2.60;;
71423;SDS011;59240;51.370;-0.486;2023-01-05T05:25:34;23.25;;;2.10;;
71423;SDS011;59240;51.370;-0.486;2023-01-05T05:28:04;25.23;;;2.43;;
71423;SDS011;59240;51.370;-0.486;2023-01-05T05:30:31;27.67;;;2.10;;
71423;SDS011;59240;51.370;-0.486;2023-01-05T05:32:58;24.35;;;2.38;;
71423;SDS011;59240;51.370;-0.486;2023-01-05T05:35:24;22.25;;;2.47;;
71423;SDS011;59240;51.370;-0.486;2023-01-05T05:37:51;21.27;;;1.98;;
71423;SDS011;59240;51.370;-0.486;2023-01-05T05:40:22;33.97;;;3.50;;
71423;SDS011;59240;51.370;-0.486;2023-01-05T05:42:48;25.38;;;2.63;;
71423;SDS011;59240;51.370;-0.486;2023-01-05T05:45:15;24.05;;;1.67;;
71423;SDS011;59240;51.370;-0.486;2023-01-05T05:47:42;22.38;;;2.67;;
71423;SDS011;59240;51.370;-0.486;2023-01-05T05:50:09;21.73;;;2.22;;
71423;SDS011;59240;51.370;-0.486;2023-01-05T05:52:35;30.97;;;2.77;;
71423;SDS011;59240;51.370;-0.486;2023-01-05T05:55:02;28.85;;;2.60;;
71423;SDS011;59240;51.370;-0.486;2023-01-05T05:57:29;24.05;;;2.00;;
71423;SDS011;59240;51.370;-0.486;2023-01-05T05:59:56;22.80;;;2.15;;
71423;SDS011;59240;51.370;-0.486;2023-01-05T06:02:22;22.98;;;2.25;;
71423;SDS011;59240;51.370;-0.486;2023-01-05T06:04:49;19.10;;;2.40;;
71423;SDS011;59240;51.370;-0.486;2023-01-05T06:07:15;27.98;;;2.60;;
71423;SDS011;59240;51.370;-0.486;2023-01-05T06:09:42;17.05;;;2.40;;
71423;SDS011;59240;51.370;-0.486;2023-01-05T06:12:08;25.35;;;1.90;;
71423;SDS011;59240;51.370;-0.486;2023-01-05T06:14:35;26.27;;;3.10;;
71423;SDS011;59240;51.370;-0.486;2023-01-05T06:17:02;24.63;;;2.20;;
71423;SDS011;59240;51.370;-0.486;2023-01-05T06:19:28;28.40;;;2.70;;
71423;SDS011;59240;51.370;-0.486;2023-01-05T06:21:55;22.13;;;2.33;;
71423;SDS011;59240;51.370;-0.486;2023-01-05T06:24:22;20.50;;;2.05;;
71423;SDS011;59240;51.370;-0.486;2023-01-05T06:26:48;19.35;;;2.08;;
71423;SDS011;59240;51.370;-0.486;2023-01-05T06:29:15;28.43;;;3.33;;
71423;SDS011;59240;51.370;-0.486;2023-01-05T06:31:42;23.70;;;2.60;;
71423;SDS011;59240;51.370;-0.486;2023-01-05T06:34:08;28.50;;;2.92;;
71423;SDS011;59240;51.370;-0.486;2023-01-05T06:36:35;26.25;;;3.28;;
71423;SDS011;59240;51.370;-0.486;2023-01-05T06:39:02;21.73;;;2.80;;
71423;SDS011;59240;51.370;-0.486;2023-01-05T06:41:28;21.77;;;2.23;;
71423;SDS011;59240;51.370;-0.486;2023-01-05T06:43:56;24.17;;;2.42;;
71423;SDS011;59240;51.370;-0.486;2023-01-05T06:46:22;20.90;;;2.22;;
71423;SDS011;59240;51.370;-0.486;2023-01-05T06:48:49;25.45;;;2.72;;
71423;SDS011;59240;51.370;-0.486;2023-01-05T06:51:16;23.02;;;3.10;;
71423;SDS011;59240;51.370;-0.486;2023-01-05T06:53:43;24.70;;;2.50;;
71423;SDS011;59240;51.370;-0.486;2023-01-05T06:56:09;20.35;;;2.30;;
71423;SDS011;59240;51.370;-0.486;2023-01-05T06:58:36;26.77;;;2.38;;
71423;SDS011;59240;51.370;-0.486;2023-01-05T07:01:03;21.88;;;2.75;;
71423;SDS011;59240;51.370;-0.486;2023-01-05T07:03:30;25.27;;;2.35;;
71423;SDS011;59240;51.370;-0.486;2023-01-05T07:05:57;24.87;;;2.80;;
71423;SDS011;59240;51.370;-0.486;2023-01-05T07:08:23;20.48;;;2.28;;
71423;SDS011;59240;51.370;-0.486;2023-01-05T07:10:50;22.15;;;2.80;;
71423;SDS011;59240;51.370;-0.486;2023-01-05T07:13:17;22.70;;;2.80;;
71423;SDS011;59240;51.370;-0.486;2023-01-05T07:15:43;14.35;;;1.85;;
71423;SDS011;59240;51.370;-0.486;2023-01-05T07:18:10;24.07;;;3.40;;
71423;SDS011;59240;51.370;-0.486;2023-01-05T07:20:37;22.30;;;2.25;;
71423;SDS011;59240;51.370;-0.486;2023-01-05T07:23:03;23.85;;;2.35;;
71423;SDS011;59240;51.370;-0.486;2023-01-05T07:25:30;20.95;;;2.70;;
71423;SDS011;59240;51.370;-0.486;2023-01-05T07:27:58;23.02;;;1.92;;
71423;SDS011;59240;51.370;-0.486;2023-01-05T07:30:25;25.87;;;2.47;;
71423;SDS011;59240;51.370;-0.486;2023-01-05T07:32:51;22.35;;;2.75;;
71423;SDS011;59240;51.370;-0.486;2023-01-05T07:35:18;22.60;;;2.55;;
71423;SDS011;59240;51.370;-0.486;2023-01-05T07:37:44;22.90;;;2.15;;
71423;SDS011;59240;51.370;-0.486;2023-01-05T07:40:11;21.92;;;2.38;;
71423;SDS011;59240;51.370;-0.486;2023-01-05T07:42:38;22.17;;;2.53;;
71423;SDS011;59240;51.370;-0.486;2023-01-05T07:45:04;24.75;;;2.17;;
71423;SDS011;59240;51.370;-0.486;2023-01-05T07:47:32;29.08;;;2.63;;
71423;SDS011;59240;51.370;-0.486;2023-01-05T07:49:58;20.88;;;2.10;;
71423;SDS011;59240;51.370;-0.486;2023-01-05T07:52:27;22.15;;;2.17;;
71423;SDS011;59240;51.370;-0.486;2023-01-05T07:54:55;23.53;;;2.10;;
71423;SDS011;59240;51.370;-0.486;2023-01-05T07:57:23;26.63;;;2.47;;
71423;SDS011;59240;51.370;-0.486;2023-01-05T07:59:50;28.90;;;2.88;;
71423;SDS011;59240;51.370;-0.486;2023-01-05T08:02:16;18.77;;;2.40;;
71423;SDS011;59240;51.370;-0.486;2023-01-05T08:04:43;22.00;;;2.00;;
71423;SDS011;59240;51.370;-0.486;2023-01-05T08:07:10;27.50;;;2.73;;
71423;SDS011;59240;51.370;-0.486;2023-01-05T08:09:37;21.88;;;2.45;;
71423;SDS011;59240;51.370;-0.486;2023-01-05T08:12:22;19.38;;;2.75;;
71423;SDS011;59240;51.370;-0.486;2023-01-05T08:14:49;20.80;;;2.72;;
71423;SDS011;59240;51.370;-0.486;2023-01-05T08:17:16;22.90;;;2.00;;
71423;SDS011;59240;51.370;-0.486;2023-01-05T08:19:43;22.23;;;2.37;;
71423;SDS011;59240;51.370;-0.486;2023-01-05T08:22:09;20.55;;;2.42;;
71423;SDS011;59240;51.370;-0.486;2023-01-05T08:24:36;18.42;;;1.83;;
71423;SDS011;59240;51.370;-0.486;2023-01-05T08:27:03;25.77;;;2.42;;
71423;SDS011;59240;51.370;-0.486;2023-01-05T08:29:29;23.90;;;2.75;;
71423;SDS011;59240;51.370;-0.486;2023-01-05T08:31:56;19.37;;;2.17;;
71423;SDS011;59240;51.370;-0.486;2023-01-05T08:34:23;19.92;;;1.80;;
71423;SDS011;59240;51.370;-0.486;2023-01-05T08:36:56;16.58;;;1.95;;
71423;SDS011;59240;51.370;-0.486;2023-01-05T08:39:23;15.38;;;2.30;;
71423;SDS011;59240;51.370;-0.486;2023-01-05T08:41:49;14.82;;;1.60;;
71423;SDS011;59240;51.370;-0.486;2023-01-05T08:44:16;21.47;;;2.23;;
71423;SDS011;59240;51.370;-0.486;2023-01-05T08:46:42;16.33;;;2.20;;
71423;SDS011;59240;51.370;-0.486;2023-01-05T08:49:09;20.60;;;1.20;;
71423;SDS011;59240;51.370;-0.486;2023-01-05T08:51:36;16.90;;;1.73;;
71423;SDS011;59240;51.370;-0.486;2023-01-05T08:54:03;22.13;;;2.47;;
71423;SDS011;59240;51.370;-0.486;2023-01-05T08:56:30;16.70;;;2.23;;
71423;SDS011;59240;51.370;-0.486;2023-01-05T08:59:03;17.67;;;1.48;;
71423;SDS011;59240;51.370;-0.486;2023-01-05T09:01:30;14.95;;;1.75;;
71423;SDS011;59240;51.370;-0.486;2023-01-05T09:03:57;19.05;;;1.90;;
71423;SDS011;59240;51.370;-0.486;2023-01-05T09:06:23;14.57;;;2.00;;
71423;SDS011;59240;51.370;-0.486;2023-01-05T09:08:50;16.27;;;1.80;;
71423;SDS011;59240;51.370;-0.486;2023-01-05T09:11:18;15.60;;;2.20;;
71423;SDS011;59240;51.370;-0.486;2023-01-05T09:13:50;16.25;;;2.00;;
71423;SDS011;59240;51.370;-0.486;2023-01-05T09:16:26;18.23;;;2.03;;
71423;SDS011;59240;51.370;-0.486;2023-01-05T09:19:14;15.07;;;1.80;;
71423;SDS011;59240;51.370;-0.486;2023-01-05T09:21:41;13.77;;;1.70;;
71423;SDS011;59240;51.370;-0.486;2023-01-05T09:24:07;15.40;;;1.58;;
71423;SDS011;59240;51.370;-0.486;2023-01-05T09:26:39;16.55;;;1.73;;
71423;SDS011;59240;51.370;-0.486;2023-01-05T09:29:08;14.30;;;1.20;;
71423;SDS011;59240;51.370;-0.486;2023-01-05T09:31:35;16.02;;;1.60;;
71423;SDS011;59240;51.370;-0.486;2023-01-05T09:34:02;9.33;;;1.20;;
71423;SDS011;59240;51.370;-0.486;2023-01-05T09:36:29;17.08;;;1.85;;
71423;SDS011;59240;51.370;-0.486;2023-01-05T09:38:55;15.35;;;1.60;;
71423;SDS011;59240;51.370;-0.486;2023-01-05T09:41:37;11.25;;;1.27;;
71423;SDS011;59240;51.370;-0.486;2023-01-05T09:44:11;11.43;;;1.38;;
71423;SDS011;59240;51.370;-0.486;2023-01-05T09:46:46;12.13;;;1.90;;
71423;SDS011;59240;51.370;-0.486;2023-01-05T09:49:19;12.65;;;1.15;;
71423;SDS011;59240;51.370;-0.486;2023-01-05T09:51:48;10.23;;;1.38;;
71423;SDS011;59240;51.370;-0.486;2023-01-05T09:54:19;16.17;;;1.70;;
71423;SDS011;59240;51.370;-0.486;2023-01-05T09:56:47;17.48;;;1.15;;
71423;SDS011;59240;51.370;-0.486;2023-01-05T09:59:38;8.20;;;0.70;;
71423;SDS011;59240;51.370;-0.486;2023-01-05T10:02:13;12.05;;;1.10;;
71423;SDS011;59240;51.370;-0.486;2023-01-05T10:04:44;7.63;;;0.82;;
71423;SDS011;59240;51.370;-0.486;2023-01-05T10:13:16;11.83;;;0.90;;
71423;SDS011;59240;51.370;-0.486;2023-01-05T10:15:51;10.07;;;0.90;;
71423;SDS011;59240;51.370;-0.486;2023-01-05T10:18:24;7.22;;;0.90;;
71423;SDS011;59240;51.370;-0.486;2023-01-05T10:21:05;8.23;;;0.80;;
71423;SDS011;59240;51.370;-0.486;2023-01-05T10:24:02;8.07;;;0.70;;
71423;SDS011;59240;51.370;-0.486;2023-01-05T10:26:41;6.63;;;0.50;;
71423;SDS011;59240;51.370;-0.486;2023-01-05T10:29:41;7.05;;;1.00;;
71423;SDS011;59240;51.370;-0.486;2023-01-05T10:40:55;7.73;;;0.83;;
71423;SDS011;59240;51.370;-0.486;2023-01-05T10:43:32;9.35;;;1.17;;
71423;SDS011;59240;51.370;-0.486;2023-01-05T10:46:03;6.97;;;1.35;;
71423;SDS011;59240;51.370;-0.486;2023-01-05T10:48:50;9.93;;;1.30;;
71423;SDS011;59240;51.370;-0.486;2023-01-05T10:51:17;8.35;;;1.55;;
71423;SDS011;59240;51.370;-0.486;2023-01-05T10:53:44;9.83;;;2.00;;
71423;SDS011;59240;51.370;-0.486;2023-01-05T10:56:14;7.82;;;1.70;;
71423;SDS011;59240;51.370;-0.486;2023-01-05T10:58:48;9.55;;;1.60;;
71423;SDS011;59240;51.370;-0.486;2023-01-05T11:01:32;8.30;;;1.13;;
71423;SDS011;59240;51.370;-0.486;2023-01-05T11:04:16;6.65;;;1.02;;
71423;SDS011;59240;51.370;-0.486;2023-01-05T11:07:03;3.23;;;0.50;;
71423;SDS011;59240;51.370;-0.486;2023-01-05T11:09:31;8.18;;;1.33;;
71423;SDS011;59240;51.370;-0.486;2023-01-05T11:12:04;5.20;;;0.80;;
71423;SDS011;59240;51.370;-0.486;2023-01-05T11:14:35;3.92;;;0.57;;
71423;SDS011;59240;51.370;-0.486;2023-01-05T11:17:13;3.22;;;0.40;;
71423;SDS011;59240;51.370;-0.486;2023-01-05T11:19:48;5.13;;;0.60;;
71423;SDS011;59240;51.370;-0.486;2023-01-05T11:22:35;4.95;;;0.50;;
71423;SDS011;59240;51.370;-0.486;2023-01-05T11:30:47;7.57;;;1.40;;
71423;SDS011;59240;51.370;-0.486;2023-01-05T11:33:26;5.80;;;0.50;;
71423;SDS011;59240;51.370;-0.486;2023-01-05T11:35:55;6.90;;;0.73;;
71423;SDS011;59240;51.370;-0.486;2023-01-05T11:38:27;11.32;;;0.60;;
71423;SDS011;59240;51.370;-0.486;2023-01-05T11:40:56;5.20;;;0.88;;
71423;SDS011;59240;51.370;-0.486;2023-01-05T11:43:24;3.03;;;0.55;;
71423;SDS011;59240;51.370;-0.486;2023-01-05T11:45:54;4.73;;;0.73;;
71423;SDS011;59240;51.370;-0.486;2023-01-05T11:48:28;5.43;;;0.60;;
71423;SDS011;59240;51.370;-0.486;2023-01-05T11:50:58;5.78;;;0.55;;
71423;SDS011;59240;51.370;-0.486;2023-01-05T11:58:55;9.47;;;0.60;;
71423;SDS011;59240;51.370;-0.486;2023-01-05T12:09:58;8.07;;;0.90;;
71423;SDS011;59240;51.370;-0.486;2023-01-05T12:12:46;5.37;;;0.60;;
71423;SDS011;59240;51.370;-0.486;2023-01-05T12:15:54;8.15;;;1.20;;
71423;SDS011;59240;51.370;-0.486;2023-01-05T12:19:05;9.13;;;0.77;;
71423;SDS011;59240;51.370;-0.486;2023-01-05T12:21:24;5.85;;;0.93;;
71423;SDS011;59240;51.370;-0.486;2023-01-05T12:24:06;6.85;;;0.65;;
71423;SDS011;59240;51.370;-0.486;2023-01-05T12:49:16;5.25;;;0.52;;
71423;SDS011;59240;51.370;-0.486;2023-01-05T12:51:51;8.40;;;0.75;;
71423;SDS011;59240;51.370;-0.486;2023-01-05T12:57:09;8.88;;;0.80;;
71423;SDS011;59240;51.370;-0.486;2023-01-05T13:07:47;9.00;;;0.90;;
71423;SDS011;59240;51.370;-0.486;2023-01-05T13:13:06;8.85;;;1.10;;
71423;SDS011;59240;51.370;-0.486;2023-01-05T13:15:42;12.77;;;1.02;;
71423;SDS011;59240;51.370;-0.486;2023-01-05T13:18:16;9.57;;;0.70;;
71423;SDS011;59240;51.370;-0.486;2023-01-05T13:20:56;11.30;;;1.00;;
71423;SDS011;59240;51.370;-0.486;2023-01-05T13:23:31;9.10;;;0.80;;
71423;SDS011;59240;51.370;-0.486;2023-01-05T13:26:04;11.75;;;0.80;;
71423;SDS011;59240;51.370;-0.486;2023-01-05T13:28:54;7.43;;;1.13;;
71423;SDS011;59240;51.370;-0.486;2023-01-05T13:46:18;13.13;;;1.50;;
71423;SDS011;59240;51.370;-0.486;2023-01-05T13:51:49;18.65;;;2.08;;
71423;SDS011;59240;51.370;-0.486;2023-01-05T13:54:32;17.75;;;1.45;;
71423;SDS011;59240;51.370;-0.486;2023-01-05T13:57:23;13.60;;;1.58;;
71423;SDS011;59240;51.370;-0.486;2023-01-05T13:59:59;10.95;;;1.65;;
71423;SDS011;59240;51.370;-0.486;2023-01-05T14:02:39;8.50;;;1.10;;
71423;SDS011;59240;51.370;-0.486;2023-01-05T14:07:49;13.05;;;2.03;;
71423;SDS011;59240;51.370;-0.486;2023-01-05T14:10:21;13.00;;;2.10;;
71423;SDS011;59240;51.370;-0.486;2023-01-05T14:12:54;21.08;;;1.88;;
71423;SDS011;59240;51.370;-0.486;2023-01-05T14:23:03;14.30;;;1.85;;
71423;SDS011;59240;51.370;-0.486;2023-01-05T14:25:58;15.07;;;1.58;;
71423;SDS011;59240;51.370;-0.486;2023-01-05T14:33:52;13.57;;;1.63;;
71423;SDS011;59240;51.370;-0.486;2023-01-05T14:38:56;10.55;;;1.30;;
71423;SDS011;59240;51.370;-0.486;2023-01-05T14:41:25;6.30;;;0.80;;
71423;SDS011;59240;51.370;-0.486;2023-01-05T14:43:57;13.43;;;1.60;;
71423;SDS011;59240;51.370;-0.486;2023-01-05T14:46:27;9.43;;;1.13;;
71423;SDS011;59240;51.370;-0.486;2023-01-05T14:49:18;8.20;;;0.93;;
71423;SDS011;59240;51.370;-0.486;2023-01-05T14:51:55;7.82;;;0.95;;
71423;SDS011;59240;51.370;-0.486;2023-01-05T14:54:36;13.27;;;1.70;;
71423;SDS011;59240;51.370;-0.486;2023-01-05T15:02:52;10.15;;;1.23;;
71423;SDS011;59240;51.370;-0.486;2023-01-05T15:05:26;18.35;;;1.40;;
71423;SDS011;59240;51.370;-0.486;2023-01-05T15:10:57;13.63;;;1.10;;
71423;SDS011;59240;51.370;-0.486;2023-01-05T15:17:19;5.82;;;0.80;;
71423;SDS011;59240;51.370;-0.486;2023-01-05T15:23:09;10.10;;;1.30;;
71423;SDS011;59240;51.370;-0.486;2023-01-05T15:26:12;12.40;;;1.00;;
71423;SDS011;59240;51.370;-0.486;2023-01-05T15:31:30;10.93;;;1.40;;
71423;SDS011;59240;51.370;-0.486;2023-01-05T15:37:10;10.00;;;1.47;;
71423;SDS011;59240;51.370;-0.486;2023-01-05T15:39:49;12.65;;;1.13;;
71423;SDS011;59240;51.370;-0.486;2023-01-05T15:45:06;9.40;;;1.00;;
71423;SDS011;59240;51.370;-0.486;2023-01-05T15:47:42;12.60;;;1.17;;
71423;SDS011;59240;51.370;-0.486;2023-01-05T15:50:18;13.03;;;1.83;;
71423;SDS011;59240;51.370;-0.486;2023-01-05T15:52:51;13.13;;;1.27;;
71423;SDS011;59240;51.370;-0.486;2023-01-05T15:55:20;14.82;;;1.95;;
71423;SDS011;59240;51.370;-0.486;2023-01-05T15:57:51;11.18;;;1.13;;
71423;SDS011;59240;51.370;-0.486;2023-01-05T16:00:33;14.95;;;1.23;;
71423;SDS011;59240;51.370;-0.486;2023-01-05T16:03:01;12.07;;;0.83;;
71423;SDS011;59240;51.370;-0.486;2023-01-05T16:05:47;26.25;;;2.15;;
71423;SDS011;59240;51.370;-0.486;2023-01-05T16:08:21;10.55;;;0.82;;
71423;SDS011;59240;51.370;-0.486;2023-01-05T16:10:52;11.05;;;0.90;;
71423;SDS011;59240;51.370;-0.486;2023-01-05T16:13:33;11.38;;;1.23;;
71423;SDS011;59240;51.370;-0.486;2023-01-05T16:16:04;15.70;;;1.50;;
71423;SDS011;59240;51.370;-0.486;2023-01-05T16:19:00;8.82;;;1.00;;
71423;SDS011;59240;51.370;-0.486;2023-01-05T16:21:35;11.43;;;1.05;;
71423;SDS011;59240;51.370;-0.486;2023-01-05T16:26:53;12.30;;;1.25;;
71423;SDS011;59240;51.370;-0.486;2023-01-05T16:29:43;10.83;;;1.20;;
71423;SDS011;59240;51.370;-0.486;2023-01-05T16:40:34;7.40;;;0.82;;
71423;SDS011;59240;51.370;-0.486;2023-01-05T16:43:11;7.47;;;1.13;;
71423;SDS011;59240;51.370;-0.486;2023-01-05T16:45:47;12.98;;;1.45;;
71423;SDS011;59240;51.370;-0.486;2023-01-05T16:49:02;10.77;;;1.30;;
71423;SDS011;59240;51.370;-0.486;2023-01-05T16:51:12;12.07;;;1.70;;
71423;SDS011;59240;51.370;-0.486;2023-01-05T16:53:44;9.18;;;0.80;;
71423;SDS011;59240;51.370;-0.486;2023-01-05T16:56:20;9.73;;;1.83;;
71423;SDS011;59240;51.370;-0.486;2023-01-05T16:59:11;17.33;;;1.65;;
71423;SDS011;59240;51.370;-0.486;2023-01-05T17:01:57;6.88;;;0.73;;
71423;SDS011;59240;51.370;-0.486;2023-01-05T17:04:26;14.68;;;1.40;;
71423;SDS011;59240;51.370;-0.486;2023-01-05T17:06:55;11.15;;;1.60;;
71423;SDS011;59240;51.370;-0.486;2023-01-05T17:09:29;10.70;;;1.40;;
71423;SDS011;59240;51.370;-0.486;2023-01-05T17:12:00;8.93;;;0.98;;
71423;SDS011;59240;51.370;-0.486;2023-01-05T17:14:27;6.35;;;0.52;;
71423;SDS011;59240;51.370;-0.486;2023-01-05T17:16:55;11.45;;;1.42;;
71423;SDS011;59240;51.370;-0.486;2023-01-05T17:19:25;11.07;;;1.00;;
71423;SDS011;59240;51.370;-0.486;2023-01-05T17:21:56;11.33;;;0.80;;
71423;SDS011;59240;51.370;-0.486;2023-01-05T17:24:26;10.95;;;0.80;;
71423;SDS011;59240;51.370;-0.486;2023-01-05T17:26:53;8.10;;;0.93;;
71423;SDS011;59240;51.370;-0.486;2023-01-05T17:29:22;8.88;;;0.80;;
71423;SDS011;59240;51.370;-0.486;2023-01-05T17:31:53;10.52;;;0.73;;
71423;SDS011;59240;51.370;-0.486;2023-01-05T17:34:22;7.23;;;1.00;;
71423;SDS011;59240;51.370;-0.486;2023-01-05T17:36:49;6.43;;;1.00;;
71423;SDS011;59240;51.370;-0.486;2023-01-05T17:39:21;6.97;;;0.98;;
71423;SDS011;59240;51.370;-0.486;2023-01-05T17:41:48;10.90;;;0.68;;
71423;SDS011;59240;51.370;-0.486;2023-01-05T17:44:41;10.43;;;0.88;;